sensor_id;sensor_type;location;lat;lon;timestamp;temperature;humidity
12926;DHT22;6529;50.566;9.774;2023-11-19T00:00:26;6.30;99.90
12926;DHT22;6529;50.566;9.774;2023-11-19T00:02:52;6.30;99.90
12926;DHT22;6529;50.566;9.774;2023-11-19T00:05:18;6.30;99.90
12926;DHT22;6529;50.566;9.774;2023-11-19T00:07:44;6.30;99.90
12926;DHT22;6529;50.566;9.774;2023-11-19T00:10:14;6.30;99.90
12926;DHT22;6529;50.566;9.774;2023-11-19T00:12:42;6.30;99.90
12926;DHT22;6529;50.566;9.774;2023-11-19T00:15:08;6.30;99.90
12926;DHT22;6529;50.566;9.774;2023-11-19T00:17:44;6.30;99.90
12926;DHT22;6529;50.566;9.774;2023-11-19T00:20:20;6.20;99.90
12926;DHT22;6529;50.566;9.774;2023-11-19T00:22:47;6.20;99.90
12926;DHT22;6529;50.566;9.774;2023-11-19T00:25:20;6.20;99.90
12926;DHT22;6529;50.566;9.774;2023-11-19T00:27:47;6.20;99.90
12926;DHT22;6529;50.566;9.774;2023-11-19T00:30:13;6.20;99.90
12926;DHT22;6529;50.566;9.774;2023-11-19T00:32:39;6.20;99.90
12926;DHT22;6529;50.566;9.774;2023-11-19T00:35:08;6.30;99.90
12926;DHT22;6529;50.566;9.774;2023-11-19T00:37:35;6.20;99.90
12926;DHT22;6529;50.566;9.774;2023-11-19T00:40:01;6.30;99.90
12926;DHT22;6529;50.566;9.774;2023-11-19T00:42:30;6.30;99.90
12926;DHT22;6529;50.566;9.774;2023-11-19T00:44:56;6.30;99.90
12926;DHT22;6529;50.566;9.774;2023-11-19T00:47:23;6.40;99.90
12926;DHT22;6529;50.566;9.774;2023-11-19T00:49:48;6.40;99.90
12926;DHT22;6529;50.566;9.774;2023-11-19T00:52:15;6.40;99.90
12926;DHT22;6529;50.566;9.774;2023-11-19T00:54:40;6.40;99.90
12926;DHT22;6529;50.566;9.774;2023-11-19T00:57:06;6.40;99.90
12926;DHT22;6529;50.566;9.774;2023-11-19T00:59:32;6.40;99.90
12926;DHT22;6529;50.566;9.774;2023-11-19T01:01:58;6.40;99.90
12926;DHT22;6529;50.566;9.774;2023-11-19T01:04:28;6.40;99.90
12926;DHT22;6529;50.566;9.774;2023-11-19T01:06:54;6.40;99.90
12926;DHT22;6529;50.566;9.774;2023-11-19T01:09:19;6.40;99.90
12926;DHT22;6529;50.566;9.774;2023-11-19T01:11:45;6.40;99.90
12926;DHT22;6529;50.566;9.774;2023-11-19T01:14:10;6.50;99.90
12926;DHT22;6529;50.566;9.774;2023-11-19T01:16:36;6.50;99.90
12926;DHT22;6529;50.566;9.774;2023-11-19T01:19:02;6.60;99.90
12926;DHT22;6529;50.566;9.774;2023-11-19T01:21:30;6.60;99.90
12926;DHT22;6529;50.566;9.774;2023-11-19T01:23:57;6.60;99.90
12926;DHT22;6529;50.566;9.774;2023-11-19T01:26:22;6.60;99.90
12926;DHT22;6529;50.566;9.774;2023-11-19T01:28:48;6.60;99.90
12926;DHT22;6529;50.566;9.774;2023-11-19T01:31:17;6.50;99.90
12926;DHT22;6529;50.566;9.774;2023-11-19T01:33:42;6.50;99.90
12926;DHT22;6529;50.566;9.774;2023-11-19T01:36:08;6.50;99.90
12926;DHT22;6529;50.566;9.774;2023-11-19T01:38:35;6.50;99.90
12926;DHT22;6529;50.566;9.774;2023-11-19T01:41:01;6.60;99.90
12926;DHT22;6529;50.566;9.774;2023-11-19T01:43:39;6.60;99.90
12926;DHT22;6529;50.566;9.774;2023-11-19T01:46:07;6.70;99.90
12926;DHT22;6529;50.566;9.774;2023-11-19T01:48:35;6.70;99.90
12926;DHT22;6529;50.566;9.774;2023-11-19T01:51:03;6.70;99.90
12926;DHT22;6529;50.566;9.774;2023-11-19T01:53:29;6.70;99.90
12926;DHT22;6529;50.566;9.774;2023-11-19T01:55:56;6.70;99.90
12926;DHT22;6529;50.566;9.774;2023-11-19T01:58:22;6.70;99.90
12926;DHT22;6529;50.566;9.774;2023-11-19T02:00:48;6.70;99.90
12926;DHT22;6529;50.566;9.774;2023-11-19T02:03:14;6.60;99.90
12926;DHT22;6529;50.566;9.774;2023-11-19T02:05:41;6.70;99.90
12926;DHT22;6529;50.566;9.774;2023-11-19T02:08:07;6.70;99.90
12926;DHT22;6529;50.566;9.774;2023-11-19T02:10:33;6.70;99.90
12926;DHT22;6529;50.566;9.774;2023-11-19T02:12:59;6.80;99.90
12926;DHT22;6529;50.566;9.774;2023-11-19T02:15:24;6.80;99.90
12926;DHT22;6529;50.566;9.774;2023-11-19T02:17:51;6.80;99.90
12926;DHT22;6529;50.566;9.774;2023-11-19T02:20:17;6.80;99.90
12926;DHT22;6529;50.566;9.774;2023-11-19T02:22:46;6.70;99.90
12926;DHT22;6529;50.566;9.774;2023-11-19T02:25:23;6.80;99.90
12926;DHT22;6529;50.566;9.774;2023-11-19T02:27:57;6.80;99.90
12926;DHT22;6529;50.566;9.774;2023-11-19T02:30:24;6.90;99.90
12926;DHT22;6529;50.566;9.774;2023-11-19T02:32:55;6.80;99.90
12926;DHT22;6529;50.566;9.774;2023-11-19T02:35:23;6.90;99.90
12926;DHT22;6529;50.566;9.774;2023-11-19T02:37:49;6.90;99.90
12926;DHT22;6529;50.566;9.774;2023-11-19T02:40:15;7.00;99.90
12926;DHT22;6529;50.566;9.774;2023-11-19T02:42:40;7.00;99.90
12926;DHT22;6529;50.566;9.774;2023-11-19T02:45:07;7.00;99.90
12926;DHT22;6529;50.566;9.774;2023-11-19T02:47:33;7.00;99.90
12926;DHT22;6529;50.566;9.774;2023-11-19T02:49:59;7.00;99.90
12926;DHT22;6529;50.566;9.774;2023-11-19T02:52:25;7.00;99.90
12926;DHT22;6529;50.566;9.774;2023-11-19T02:54:51;7.10;99.90
12926;DHT22;6529;50.566;9.774;2023-11-19T02:57:16;7.10;99.90
12926;DHT22;6529;50.566;9.774;2023-11-19T02:59:44;7.20;99.90
12926;DHT22;6529;50.566;9.774;2023-11-19T03:02:10;7.20;99.90
12926;DHT22;6529;50.566;9.774;2023-11-19T03:04:37;7.20;99.90
12926;DHT22;6529;50.566;9.774;2023-11-19T03:07:06;7.30;99.90
12926;DHT22;6529;50.566;9.774;2023-11-19T03:09:35;7.30;99.90
12926;DHT22;6529;50.566;9.774;2023-11-19T03:12:01;7.40;99.90
12926;DHT22;6529;50.566;9.774;2023-11-19T03:14:27;7.40;99.90
12926;DHT22;6529;50.566;9.774;2023-11-19T03:16:53;7.40;99.90
12926;DHT22;6529;50.566;9.774;2023-11-19T03:19:18;7.40;99.90
12926;DHT22;6529;50.566;9.774;2023-11-19T03:21:44;7.50;99.90
12926;DHT22;6529;50.566;9.774;2023-11-19T03:24:10;7.50;99.90
12926;DHT22;6529;50.566;9.774;2023-11-19T03:26:38;7.50;99.90
12926;DHT22;6529;50.566;9.774;2023-11-19T03:29:03;7.60;99.90
12926;DHT22;6529;50.566;9.774;2023-11-19T03:31:29;7.60;99.90
12926;DHT22;6529;50.566;9.774;2023-11-19T03:33:54;7.60;99.90
12926;DHT22;6529;50.566;9.774;2023-11-19T03:36:20;7.60;99.90
12926;DHT22;6529;50.566;9.774;2023-11-19T03:38:45;7.70;99.90
12926;DHT22;6529;50.566;9.774;2023-11-19T03:41:15;7.70;99.90
12926;DHT22;6529;50.566;9.774;2023-11-19T03:43:41;7.70;99.90
12926;DHT22;6529;50.566;9.774;2023-11-19T03:48:42;7.70;99.90
12926;DHT22;6529;50.566;9.774;2023-11-19T03:51:08;7.70;99.90
12926;DHT22;6529;50.566;9.774;2023-11-19T03:53:34;7.80;99.90
12926;DHT22;6529;50.566;9.774;2023-11-19T03:56:01;7.80;99.90
12926;DHT22;6529;50.566;9.774;2023-11-19T03:58:26;7.80;99.90
12926;DHT22;6529;50.566;9.774;2023-11-19T04:00:52;7.80;99.90
12926;DHT22;6529;50.566;9.774;2023-11-19T04:03:17;7.80;99.90
12926;DHT22;6529;50.566;9.774;2023-11-19T04:05:45;7.80;99.90
12926;DHT22;6529;50.566;9.774;2023-11-19T04:08:10;7.80;99.90
12926;DHT22;6529;50.566;9.774;2023-11-19T04:10:36;7.90;99.90
12926;DHT22;6529;50.566;9.774;2023-11-19T04:13:01;7.90;99.90
12926;DHT22;6529;50.566;9.774;2023-11-19T04:15:27;7.90;99.90
12926;DHT22;6529;50.566;9.774;2023-11-19T04:17:53;7.90;99.90
12926;DHT22;6529;50.566;9.774;2023-11-19T04:20:18;7.90;99.90
12926;DHT22;6529;50.566;9.774;2023-11-19T04:22:44;7.90;99.90
12926;DHT22;6529;50.566;9.774;2023-11-19T04:25:09;7.90;99.90
12926;DHT22;6529;50.566;9.774;2023-11-19T04:27:36;7.90;99.90
12926;DHT22;6529;50.566;9.774;2023-11-19T04:30:02;7.90;99.90
12926;DHT22;6529;50.566;9.774;2023-11-19T04:32:29;7.90;99.90
12926;DHT22;6529;50.566;9.774;2023-11-19T04:34:54;7.90;99.90
12926;DHT22;6529;50.566;9.774;2023-11-19T04:37:20;7.90;99.90
12926;DHT22;6529;50.566;9.774;2023-11-19T04:39:45;7.90;99.90
12926;DHT22;6529;50.566;9.774;2023-11-19T04:42:11;8.00;99.90
12926;DHT22;6529;50.566;9.774;2023-11-19T04:44:37;8.00;99.90
12926;DHT22;6529;50.566;9.774;2023-11-19T04:47:03;8.00;99.90
12926;DHT22;6529;50.566;9.774;2023-11-19T04:49:29;8.00;99.90
12926;DHT22;6529;50.566;9.774;2023-11-19T04:51:55;8.10;99.90
12926;DHT22;6529;50.566;9.774;2023-11-19T04:54:21;8.10;99.90
12926;DHT22;6529;50.566;9.774;2023-11-19T04:56:47;8.10;99.90
12926;DHT22;6529;50.566;9.774;2023-11-19T04:59:12;8.10;99.90
12926;DHT22;6529;50.566;9.774;2023-11-19T05:01:38;8.10;99.90
12926;DHT22;6529;50.566;9.774;2023-11-19T05:04:03;8.20;99.90
12926;DHT22;6529;50.566;9.774;2023-11-19T05:06:30;8.10;99.90
12926;DHT22;6529;50.566;9.774;2023-11-19T05:08:57;8.20;99.90
12926;DHT22;6529;50.566;9.774;2023-11-19T05:11:23;8.20;99.90
12926;DHT22;6529;50.566;9.774;2023-11-19T05:13:49;8.20;99.90
12926;DHT22;6529;50.566;9.774;2023-11-19T05:16:15;8.20;99.90
12926;DHT22;6529;50.566;9.774;2023-11-19T05:18:42;8.20;99.90
12926;DHT22;6529;50.566;9.774;2023-11-19T05:21:08;8.20;99.90
12926;DHT22;6529;50.566;9.774;2023-11-19T05:23:34;8.20;99.90
12926;DHT22;6529;50.566;9.774;2023-11-19T05:26:01;8.30;99.90
12926;DHT22;6529;50.566;9.774;2023-11-19T05:28:27;8.30;99.90
12926;DHT22;6529;50.566;9.774;2023-11-19T05:30:53;8.30;99.90
12926;DHT22;6529;50.566;9.774;2023-11-19T05:33:18;8.30;99.90
12926;DHT22;6529;50.566;9.774;2023-11-19T05:35:44;8.40;99.90
12926;DHT22;6529;50.566;9.774;2023-11-19T05:38:09;8.40;99.90
12926;DHT22;6529;50.566;9.774;2023-11-19T05:40:35;8.40;99.90
12926;DHT22;6529;50.566;9.774;2023-11-19T05:43:01;8.40;99.90
12926;DHT22;6529;50.566;9.774;2023-11-19T05:45:26;8.40;99.90
12926;DHT22;6529;50.566;9.774;2023-11-19T05:47:52;8.40;99.90
12926;DHT22;6529;50.566;9.774;2023-11-19T05:50:18;8.50;99.90
12926;DHT22;6529;50.566;9.774;2023-11-19T05:52:44;8.50;99.90
12926;DHT22;6529;50.566;9.774;2023-11-19T05:55:09;8.50;99.90
12926;DHT22;6529;50.566;9.774;2023-11-19T05:57:39;8.50;99.90
12926;DHT22;6529;50.566;9.774;2023-11-19T06:00:06;8.50;99.90
12926;DHT22;6529;50.566;9.774;2023-11-19T06:02:35;8.50;99.90
12926;DHT22;6529;50.566;9.774;2023-11-19T06:05:03;8.50;99.90
12926;DHT22;6529;50.566;9.774;2023-11-19T06:07:31;8.50;99.90
12926;DHT22;6529;50.566;9.774;2023-11-19T06:09:56;8.50;99.90
12926;DHT22;6529;50.566;9.774;2023-11-19T06:12:22;8.50;99.90
12926;DHT22;6529;50.566;9.774;2023-11-19T06:14:47;8.60;99.90
12926;DHT22;6529;50.566;9.774;2023-11-19T06:17:13;8.60;99.90
12926;DHT22;6529;50.566;9.774;2023-11-19T06:19:39;8.60;99.90
12926;DHT22;6529;50.566;9.774;2023-11-19T06:22:04;8.60;99.90
12926;DHT22;6529;50.566;9.774;2023-11-19T06:24:30;8.60;99.90
12926;DHT22;6529;50.566;9.774;2023-11-19T06:26:55;8.70;99.90
12926;DHT22;6529;50.566;9.774;2023-11-19T06:29:21;8.70;99.90
12926;DHT22;6529;50.566;9.774;2023-11-19T06:31:47;8.80;99.90
12926;DHT22;6529;50.566;9.774;2023-11-19T06:34:15;8.70;99.90
12926;DHT22;6529;50.566;9.774;2023-11-19T06:36:41;8.70;99.90
12926;DHT22;6529;50.566;9.774;2023-11-19T06:39:09;8.80;99.90
12926;DHT22;6529;50.566;9.774;2023-11-19T06:41:34;8.80;99.90
12926;DHT22;6529;50.566;9.774;2023-11-19T06:44:00;8.80;99.90
12926;DHT22;6529;50.566;9.774;2023-11-19T06:46:25;8.80;99.90
12926;DHT22;6529;50.566;9.774;2023-11-19T06:48:51;8.80;99.90
12926;DHT22;6529;50.566;9.774;2023-11-19T06:51:16;8.80;99.90
12926;DHT22;6529;50.566;9.774;2023-11-19T06:53:42;8.90;99.90
12926;DHT22;6529;50.566;9.774;2023-11-19T06:56:23;8.90;99.90
12926;DHT22;6529;50.566;9.774;2023-11-19T06:58:50;8.90;99.90
12926;DHT22;6529;50.566;9.774;2023-11-19T07:01:19;8.90;99.90
12926;DHT22;6529;50.566;9.774;2023-11-19T07:03:45;9.00;99.90
12926;DHT22;6529;50.566;9.774;2023-11-19T07:06:11;9.00;99.90
12926;DHT22;6529;50.566;9.774;2023-11-19T07:08:38;8.90;99.90
12926;DHT22;6529;50.566;9.774;2023-11-19T07:11:04;9.00;99.90
12926;DHT22;6529;50.566;9.774;2023-11-19T07:13:30;9.10;99.90
12926;DHT22;6529;50.566;9.774;2023-11-19T07:15:56;9.00;99.90
12926;DHT22;6529;50.566;9.774;2023-11-19T07:18:22;9.10;99.90
12926;DHT22;6529;50.566;9.774;2023-11-19T07:20:48;9.10;99.90
12926;DHT22;6529;50.566;9.774;2023-11-19T07:23:13;9.10;99.90
12926;DHT22;6529;50.566;9.774;2023-11-19T07:25:42;9.10;99.90
12926;DHT22;6529;50.566;9.774;2023-11-19T07:28:08;9.20;99.90
12926;DHT22;6529;50.566;9.774;2023-11-19T07:30:35;9.10;99.90
12926;DHT22;6529;50.566;9.774;2023-11-19T07:33:01;9.10;99.90
12926;DHT22;6529;50.566;9.774;2023-11-19T07:35:29;9.20;99.90
12926;DHT22;6529;50.566;9.774;2023-11-19T07:37:56;9.20;99.90
12926;DHT22;6529;50.566;9.774;2023-11-19T07:40:23;9.20;99.90
12926;DHT22;6529;50.566;9.774;2023-11-19T07:42:48;9.20;99.90
12926;DHT22;6529;50.566;9.774;2023-11-19T07:45:14;9.10;99.90
12926;DHT22;6529;50.566;9.774;2023-11-19T07:47:39;9.10;99.90
12926;DHT22;6529;50.566;9.774;2023-11-19T07:50:05;9.10;99.90
12926;DHT22;6529;50.566;9.774;2023-11-19T07:52:31;9.10;99.90
12926;DHT22;6529;50.566;9.774;2023-11-19T07:54:56;9.10;99.90
12926;DHT22;6529;50.566;9.774;2023-11-19T07:57:22;9.10;99.90
12926;DHT22;6529;50.566;9.774;2023-11-19T07:59:49;9.10;99.90
12926;DHT22;6529;50.566;9.774;2023-11-19T08:02:14;9.20;99.90
12926;DHT22;6529;50.566;9.774;2023-11-19T08:04:40;9.20;99.90
12926;DHT22;6529;50.566;9.774;2023-11-19T08:07:10;9.30;99.90
12926;DHT22;6529;50.566;9.774;2023-11-19T08:09:36;9.30;99.90
12926;DHT22;6529;50.566;9.774;2023-11-19T08:12:03;9.30;99.90
12926;DHT22;6529;50.566;9.774;2023-11-19T08:14:29;9.40;99.90
12926;DHT22;6529;50.566;9.774;2023-11-19T08:16:54;9.40;99.90
12926;DHT22;6529;50.566;9.774;2023-11-19T08:19:20;9.40;99.90
12926;DHT22;6529;50.566;9.774;2023-11-19T08:21:45;9.40;99.90
12926;DHT22;6529;50.566;9.774;2023-11-19T08:24:11;9.50;99.90
12926;DHT22;6529;50.566;9.774;2023-11-19T08:26:36;9.50;99.90
12926;DHT22;6529;50.566;9.774;2023-11-19T08:29:02;9.60;99.90
12926;DHT22;6529;50.566;9.774;2023-11-19T08:31:28;9.60;99.90
12926;DHT22;6529;50.566;9.774;2023-11-19T08:33:54;9.70;99.90
12926;DHT22;6529;50.566;9.774;2023-11-19T08:36:19;9.70;99.90
12926;DHT22;6529;50.566;9.774;2023-11-19T08:38:46;9.70;99.90
12926;DHT22;6529;50.566;9.774;2023-11-19T08:41:12;9.70;99.90
12926;DHT22;6529;50.566;9.774;2023-11-19T08:43:37;9.80;99.90
12926;DHT22;6529;50.566;9.774;2023-11-19T08:46:04;10.00;99.90
12926;DHT22;6529;50.566;9.774;2023-11-19T08:48:34;10.10;99.90
12926;DHT22;6529;50.566;9.774;2023-11-19T08:50:59;10.20;99.90
12926;DHT22;6529;50.566;9.774;2023-11-19T08:53:25;10.20;99.90
12926;DHT22;6529;50.566;9.774;2023-11-19T08:55:50;10.30;99.90
12926;DHT22;6529;50.566;9.774;2023-11-19T08:58:16;10.30;99.90
12926;DHT22;6529;50.566;9.774;2023-11-19T09:00:43;10.30;99.90
12926;DHT22;6529;50.566;9.774;2023-11-19T09:03:09;10.40;99.90
12926;DHT22;6529;50.566;9.774;2023-11-19T09:05:34;10.50;99.90
12926;DHT22;6529;50.566;9.774;2023-11-19T09:08:00;10.50;99.90
12926;DHT22;6529;50.566;9.774;2023-11-19T09:10:26;10.50;99.90
12926;DHT22;6529;50.566;9.774;2023-11-19T09:12:52;10.60;99.90
12926;DHT22;6529;50.566;9.774;2023-11-19T09:15:18;10.60;99.90
12926;DHT22;6529;50.566;9.774;2023-11-19T09:17:43;10.70;99.90
12926;DHT22;6529;50.566;9.774;2023-11-19T09:20:09;10.70;99.90
12926;DHT22;6529;50.566;9.774;2023-11-19T09:22:37;10.80;99.90
12926;DHT22;6529;50.566;9.774;2023-11-19T09:25:03;10.80;99.90
12926;DHT22;6529;50.566;9.774;2023-11-19T09:27:30;10.90;99.90
12926;DHT22;6529;50.566;9.774;2023-11-19T09:29:56;10.80;99.90
12926;DHT22;6529;50.566;9.774;2023-11-19T09:32:23;10.80;99.90
12926;DHT22;6529;50.566;9.774;2023-11-19T09:34:49;10.90;99.90
12926;DHT22;6529;50.566;9.774;2023-11-19T09:37:15;11.10;99.90
12926;DHT22;6529;50.566;9.774;2023-11-19T09:39:41;11.10;99.90
12926;DHT22;6529;50.566;9.774;2023-11-19T09:42:09;11.20;99.90
12926;DHT22;6529;50.566;9.774;2023-11-19T09:44:36;11.30;99.90
12926;DHT22;6529;50.566;9.774;2023-11-19T09:47:03;11.30;99.90
12926;DHT22;6529;50.566;9.774;2023-11-19T09:49:29;11.20;99.90
12926;DHT22;6529;50.566;9.774;2023-11-19T09:51:55;11.20;99.90
12926;DHT22;6529;50.566;9.774;2023-11-19T09:54:21;11.20;99.90
12926;DHT22;6529;50.566;9.774;2023-11-19T09:56:47;11.10;99.90
12926;DHT22;6529;50.566;9.774;2023-11-19T09:59:13;11.10;99.90
12926;DHT22;6529;50.566;9.774;2023-11-19T10:01:39;11.20;99.90
12926;DHT22;6529;50.566;9.774;2023-11-19T10:04:06;11.40;99.90
12926;DHT22;6529;50.566;9.774;2023-11-19T10:06:32;11.50;99.90
12926;DHT22;6529;50.566;9.774;2023-11-19T10:08:58;11.60;99.90
12926;DHT22;6529;50.566;9.774;2023-11-19T10:11:25;11.70;99.90
12926;DHT22;6529;50.566;9.774;2023-11-19T10:13:52;11.80;99.90
12926;DHT22;6529;50.566;9.774;2023-11-19T10:16:18;12.00;99.90
12926;DHT22;6529;50.566;9.774;2023-11-19T10:18:48;12.20;99.90
12926;DHT22;6529;50.566;9.774;2023-11-19T10:21:14;12.30;99.90
12926;DHT22;6529;50.566;9.774;2023-11-19T10:23:52;12.30;99.90
12926;DHT22;6529;50.566;9.774;2023-11-19T10:26:19;12.40;99.90
12926;DHT22;6529;50.566;9.774;2023-11-19T10:28:49;12.50;99.90
12926;DHT22;6529;50.566;9.774;2023-11-19T10:31:19;12.70;99.90
12926;DHT22;6529;50.566;9.774;2023-11-19T10:33:50;12.60;95.80
12926;DHT22;6529;50.566;9.774;2023-11-19T10:36:15;12.40;99.90
12926;DHT22;6529;50.566;9.774;2023-11-19T10:38:55;12.20;99.90
12926;DHT22;6529;50.566;9.774;2023-11-19T10:41:31;12.10;99.90
12926;DHT22;6529;50.566;9.774;2023-11-19T10:44:00;12.00;99.90
12926;DHT22;6529;50.566;9.774;2023-11-19T10:46:39;12.10;99.90
12926;DHT22;6529;50.566;9.774;2023-11-19T10:49:06;12.30;99.90
12926;DHT22;6529;50.566;9.774;2023-11-19T10:51:32;12.40;99.90
12926;DHT22;6529;50.566;9.774;2023-11-19T10:54:03;12.40;99.90
12926;DHT22;6529;50.566;9.774;2023-11-19T10:56:32;12.30;99.90
12926;DHT22;6529;50.566;9.774;2023-11-19T10:58:59;12.30;99.90
12926;DHT22;6529;50.566;9.774;2023-11-19T11:01:27;12.40;99.90
12926;DHT22;6529;50.566;9.774;2023-11-19T11:03:59;12.50;33.00
12926;DHT22;6529;50.566;9.774;2023-11-19T11:06:27;12.80;1.00
12926;DHT22;6529;50.566;9.774;2023-11-19T11:08:53;13.00;1.00
12926;DHT22;6529;50.566;9.774;2023-11-19T11:11:19;13.30;1.00
12926;DHT22;6529;50.566;9.774;2023-11-19T11:13:49;13.60;99.90
12926;DHT22;6529;50.566;9.774;2023-11-19T11:16:18;13.60;99.90
12926;DHT22;6529;50.566;9.774;2023-11-19T11:18:47;13.70;1.00
12926;DHT22;6529;50.566;9.774;2023-11-19T11:21:17;13.50;99.90
12926;DHT22;6529;50.566;9.774;2023-11-19T11:32:33;13.60;1.00
12926;DHT22;6529;50.566;9.774;2023-11-19T11:37:46;14.00;99.90
12926;DHT22;6529;50.566;9.774;2023-11-19T11:40:17;14.10;99.90
12926;DHT22;6529;50.566;9.774;2023-11-19T11:42:46;14.00;99.90
12926;DHT22;6529;50.566;9.774;2023-11-19T11:45:13;13.90;99.90
12926;DHT22;6529;50.566;9.774;2023-11-19T11:50:09;13.50;99.90
12926;DHT22;6529;50.566;9.774;2023-11-19T11:57:57;12.80;1.00
12926;DHT22;6529;50.566;9.774;2023-11-19T12:00:31;12.70;1.00
12926;DHT22;6529;50.566;9.774;2023-11-19T12:03:00;12.50;99.90
12926;DHT22;6529;50.566;9.774;2023-11-19T12:05:26;12.40;99.90
12926;DHT22;6529;50.566;9.774;2023-11-19T12:08:01;12.40;99.90
12926;DHT22;6529;50.566;9.774;2023-11-19T12:13:09;12.20;1.00
12926;DHT22;6529;50.566;9.774;2023-11-19T12:18:27;12.30;99.90
12926;DHT22;6529;50.566;9.774;2023-11-19T12:20:53;12.20;1.00
12926;DHT22;6529;50.566;9.774;2023-11-19T12:23:19;12.30;1.00
12926;DHT22;6529;50.566;9.774;2023-11-19T12:25:44;12.40;1.00
12926;DHT22;6529;50.566;9.774;2023-11-19T12:28:16;12.50;40.80
12926;DHT22;6529;50.566;9.774;2023-11-19T12:30:43;12.70;99.90
12926;DHT22;6529;50.566;9.774;2023-11-19T12:33:10;13.10;99.90
12926;DHT22;6529;50.566;9.774;2023-11-19T12:35:46;13.50;1.00
12926;DHT22;6529;50.566;9.774;2023-11-19T12:38:25;13.80;1.00
12926;DHT22;6529;50.566;9.774;2023-11-19T12:41:04;14.00;99.90
12926;DHT22;6529;50.566;9.774;2023-11-19T12:43:29;14.30;1.00
12926;DHT22;6529;50.566;9.774;2023-11-19T12:45:55;14.40;1.00
12926;DHT22;6529;50.566;9.774;2023-11-19T12:48:21;14.50;1.00
12926;DHT22;6529;50.566;9.774;2023-11-19T12:50:57;14.50;1.00
12926;DHT22;6529;50.566;9.774;2023-11-19T12:53:24;14.60;99.90
12926;DHT22;6529;50.566;9.774;2023-11-19T12:55:53;14.30;99.90
12926;DHT22;6529;50.566;9.774;2023-11-19T12:58:32;14.10;1.00
12926;DHT22;6529;50.566;9.774;2023-11-19T13:01:08;13.90;99.90
12926;DHT22;6529;50.566;9.774;2023-11-19T13:03:36;13.80;99.90
12926;DHT22;6529;50.566;9.774;2023-11-19T13:08:45;13.60;1.00
12926;DHT22;6529;50.566;9.774;2023-11-19T13:11:14;13.60;99.90
12926;DHT22;6529;50.566;9.774;2023-11-19T13:13:55;13.70;99.90
12926;DHT22;6529;50.566;9.774;2023-11-19T13:16:21;13.90;1.50
12926;DHT22;6529;50.566;9.774;2023-11-19T13:18:47;14.00;1.00
12926;DHT22;6529;50.566;9.774;2023-11-19T13:21:13;14.00;1.00
12926;DHT22;6529;50.566;9.774;2023-11-19T13:23:38;14.10;24.70
12926;DHT22;6529;50.566;9.774;2023-11-19T13:26:04;14.00;52.70
12926;DHT22;6529;50.566;9.774;2023-11-19T13:28:30;13.80;99.90
12926;DHT22;6529;50.566;9.774;2023-11-19T13:30:56;13.50;99.90
12926;DHT22;6529;50.566;9.774;2023-11-19T13:33:21;13.40;1.00
12926;DHT22;6529;50.566;9.774;2023-11-19T13:35:47;13.20;99.90
12926;DHT22;6529;50.566;9.774;2023-11-19T13:38:12;13.10;99.90
12926;DHT22;6529;50.566;9.774;2023-11-19T13:40:38;13.00;1.00
12926;DHT22;6529;50.566;9.774;2023-11-19T13:43:04;12.90;1.00
12926;DHT22;6529;50.566;9.774;2023-11-19T13:45:30;12.90;99.90
12926;DHT22;6529;50.566;9.774;2023-11-19T13:47:55;12.80;1.00
12926;DHT22;6529;50.566;9.774;2023-11-19T13:50:21;12.80;1.00
12926;DHT22;6529;50.566;9.774;2023-11-19T13:52:48;12.80;1.00
12926;DHT22;6529;50.566;9.774;2023-11-19T13:55:14;12.80;1.00
12926;DHT22;6529;50.566;9.774;2023-11-19T13:57:40;12.80;99.90
12926;DHT22;6529;50.566;9.774;2023-11-19T14:00:09;12.90;99.90
12926;DHT22;6529;50.566;9.774;2023-11-19T14:02:48;12.90;99.90
12926;DHT22;6529;50.566;9.774;2023-11-19T14:05:14;12.90;99.90
12926;DHT22;6529;50.566;9.774;2023-11-19T14:07:44;12.80;99.90
12926;DHT22;6529;50.566;9.774;2023-11-19T14:10:09;12.90;99.90
12926;DHT22;6529;50.566;9.774;2023-11-19T14:12:37;12.80;1.00
12926;DHT22;6529;50.566;9.774;2023-11-19T14:15:04;12.80;1.00
12926;DHT22;6529;50.566;9.774;2023-11-19T14:17:31;12.70;99.90
12926;DHT22;6529;50.566;9.774;2023-11-19T14:19:57;12.60;1.00
12926;DHT22;6529;50.566;9.774;2023-11-19T14:22:23;12.60;1.00
12926;DHT22;6529;50.566;9.774;2023-11-19T14:24:48;12.60;1.00
12926;DHT22;6529;50.566;9.774;2023-11-19T14:27:14;12.50;99.90
12926;DHT22;6529;50.566;9.774;2023-11-19T14:29:39;12.50;26.70
12926;DHT22;6529;50.566;9.774;2023-11-19T14:32:06;12.50;1.00
12926;DHT22;6529;50.566;9.774;2023-11-19T14:34:31;12.50;1.00
12926;DHT22;6529;50.566;9.774;2023-11-19T14:36:58;12.50;1.00
12926;DHT22;6529;50.566;9.774;2023-11-19T14:39:24;12.40;99.90
12926;DHT22;6529;50.566;9.774;2023-11-19T14:41:50;12.40;1.00
12926;DHT22;6529;50.566;9.774;2023-11-19T14:44:16;12.40;1.00
12926;DHT22;6529;50.566;9.774;2023-11-19T14:46:41;12.30;99.90
12926;DHT22;6529;50.566;9.774;2023-11-19T14:49:07;12.30;1.00
12926;DHT22;6529;50.566;9.774;2023-11-19T14:51:36;12.30;99.90
12926;DHT22;6529;50.566;9.774;2023-11-19T14:54:04;12.10;1.00
12926;DHT22;6529;50.566;9.774;2023-11-19T14:56:29;12.00;1.00
12926;DHT22;6529;50.566;9.774;2023-11-19T14:58:55;11.80;1.00
12926;DHT22;6529;50.566;9.774;2023-11-19T15:01:20;11.60;53.20
12926;DHT22;6529;50.566;9.774;2023-11-19T15:03:46;11.40;99.90
12926;DHT22;6529;50.566;9.774;2023-11-19T15:06:11;11.30;99.90
12926;DHT22;6529;50.566;9.774;2023-11-19T15:08:37;11.20;99.90
12926;DHT22;6529;50.566;9.774;2023-11-19T15:11:03;11.10;99.90
12926;DHT22;6529;50.566;9.774;2023-11-19T15:13:31;11.00;99.90
12926;DHT22;6529;50.566;9.774;2023-11-19T15:15:57;10.90;99.90
12926;DHT22;6529;50.566;9.774;2023-11-19T15:18:23;10.80;99.90
12926;DHT22;6529;50.566;9.774;2023-11-19T15:20:48;10.80;99.90
12926;DHT22;6529;50.566;9.774;2023-11-19T15:23:14;10.60;99.90
12926;DHT22;6529;50.566;9.774;2023-11-19T15:25:40;10.60;99.90
12926;DHT22;6529;50.566;9.774;2023-11-19T15:28:07;10.60;99.90
12926;DHT22;6529;50.566;9.774;2023-11-19T15:30:32;10.40;99.90
12926;DHT22;6529;50.566;9.774;2023-11-19T15:32:58;10.30;99.90
12926;DHT22;6529;50.566;9.774;2023-11-19T15:35:23;10.20;99.90
12926;DHT22;6529;50.566;9.774;2023-11-19T15:37:49;10.10;99.90
12926;DHT22;6529;50.566;9.774;2023-11-19T15:40:14;10.00;99.90
12926;DHT22;6529;50.566;9.774;2023-11-19T15:42:41;10.00;99.90
12926;DHT22;6529;50.566;9.774;2023-11-19T15:45:09;10.00;99.90
12926;DHT22;6529;50.566;9.774;2023-11-19T15:47:35;9.90;99.90
12926;DHT22;6529;50.566;9.774;2023-11-19T15:50:04;10.00;99.90
12926;DHT22;6529;50.566;9.774;2023-11-19T15:52:30;10.00;99.90
12926;DHT22;6529;50.566;9.774;2023-11-19T15:54:56;9.90;99.90
12926;DHT22;6529;50.566;9.774;2023-11-19T15:57:22;9.90;99.90
12926;DHT22;6529;50.566;9.774;2023-11-19T15:59:47;9.90;99.90
12926;DHT22;6529;50.566;9.774;2023-11-19T16:02:14;9.90;99.90
12926;DHT22;6529;50.566;9.774;2023-11-19T16:04:40;9.90;99.90
12926;DHT22;6529;50.566;9.774;2023-11-19T16:07:06;9.90;99.90
12926;DHT22;6529;50.566;9.774;2023-11-19T16:09:31;9.80;99.90
12926;DHT22;6529;50.566;9.774;2023-11-19T16:11:57;9.80;99.90
12926;DHT22;6529;50.566;9.774;2023-11-19T16:14:23;9.80;99.90
12926;DHT22;6529;50.566;9.774;2023-11-19T16:16:49;9.70;99.90
12926;DHT22;6529;50.566;9.774;2023-11-19T16:19:16;9.60;99.90
12926;DHT22;6529;50.566;9.774;2023-11-19T16:21:43;9.50;99.90
12926;DHT22;6529;50.566;9.774;2023-11-19T16:24:08;9.50;99.90